sensor_id;sensor_type;location;lat;lon;timestamp;P1;durP1;ratioP1;P2;durP2;ratioP2
30301;SDS011;17111;52.130;5.028;2023-07-13T00:00:47;8.40;;;3.75;;
30301;SDS011;17111;52.130;5.028;2023-07-13T00:03:14;10.13;;;4.22;;
30301;SDS011;17111;52.130;5.028;2023-07-13T00:05:40;8.02;;;3.85;;
30301;SDS011;17111;52.130;5.028;2023-07-13T00:08:07;8.68;;;4.05;;
30301;SDS011;17111;52.130;5.028;2023-07-13T00:10:38;8.00;;;3.42;;
30301;SDS011;17111;52.130;5.028;2023-07-13T00:13:07;9.55;;;3.70;;
30301;SDS011;17111;52.130;5.028;2023-07-13T00:15:34;7.93;;;3.53;;
30301;SDS011;17111;52.130;5.028;2023-07-13T00:18:02;8.63;;;3.92;;
30301;SDS011;17111;52.130;5.028;2023-07-13T00:20:29;8.98;;;3.30;;
30301;SDS011;17111;52.130;5.028;2023-07-13T00:22:55;8.88;;;4.28;;
30301;SDS011;17111;52.130;5.028;2023-07-13T00:25:23;8.85;;;3.78;;
30301;SDS011;17111;52.130;5.028;2023-07-13T00:27:52;7.90;;;3.50;;
30301;SDS011;17111;52.130;5.028;2023-07-13T00:30:18;6.82;;;3.60;;
30301;SDS011;17111;52.130;5.028;2023-07-13T00:32:45;7.10;;;3.30;;
30301;SDS011;17111;52.130;5.028;2023-07-13T00:35:13;9.23;;;3.72;;
30301;SDS011;17111;52.130;5.028;2023-07-13T00:37:41;7.18;;;3.58;;
30301;SDS011;17111;52.130;5.028;2023-07-13T00:40:09;7.30;;;3.92;;
30301;SDS011;17111;52.130;5.028;2023-07-13T00:42:38;9.07;;;3.42;;
30301;SDS011;17111;52.130;5.028;2023-07-13T00:47:38;7.50;;;3.63;;
30301;SDS011;17111;52.130;5.028;2023-07-13T00:50:06;8.25;;;3.70;;
30301;SDS011;17111;52.130;5.028;2023-07-13T00:52:36;6.50;;;3.25;;
30301;SDS011;17111;52.130;5.028;2023-07-13T00:55:07;6.78;;;3.55;;
30301;SDS011;17111;52.130;5.028;2023-07-13T00:57:35;7.28;;;3.33;;
30301;SDS011;17111;52.130;5.028;2023-07-13T01:00:04;8.75;;;3.55;;
30301;SDS011;17111;52.130;5.028;2023-07-13T01:02:33;9.38;;;3.92;;
30301;SDS011;17111;52.130;5.028;2023-07-13T01:05:01;7.13;;;3.38;;
30301;SDS011;17111;52.130;5.028;2023-07-13T01:07:28;8.43;;;3.85;;
30301;SDS011;17111;52.130;5.028;2023-07-13T01:09:54;7.50;;;4.05;;
30301;SDS011;17111;52.130;5.028;2023-07-13T01:12:21;9.45;;;4.25;;
30301;SDS011;17111;52.130;5.028;2023-07-13T01:14:47;6.53;;;3.17;;
30301;SDS011;17111;52.130;5.028;2023-07-13T01:17:14;7.55;;;3.42;;
30301;SDS011;17111;52.130;5.028;2023-07-13T01:19:42;8.30;;;3.33;;
30301;SDS011;17111;52.130;5.028;2023-07-13T01:22:12;7.70;;;3.20;;
30301;SDS011;17111;52.130;5.028;2023-07-13T01:24:42;8.43;;;3.20;;
30301;SDS011;17111;52.130;5.028;2023-07-13T01:27:12;7.93;;;3.45;;
30301;SDS011;17111;52.130;5.028;2023-07-13T01:29:41;7.28;;;3.15;;
30301;SDS011;17111;52.130;5.028;2023-07-13T01:32:11;5.80;;;2.65;;
30301;SDS011;17111;52.130;5.028;2023-07-13T01:34:40;6.00;;;2.85;;
30301;SDS011;17111;52.130;5.028;2023-07-13T01:37:11;5.38;;;2.60;;
30301;SDS011;17111;52.130;5.028;2023-07-13T01:39:38;5.70;;;3.03;;
30301;SDS011;17111;52.130;5.028;2023-07-13T01:42:05;11.40;;;3.05;;
30301;SDS011;17111;52.130;5.028;2023-07-13T01:44:32;5.50;;;2.80;;
30301;SDS011;17111;52.130;5.028;2023-07-13T01:46:58;9.80;;;3.10;;
30301;SDS011;17111;52.130;5.028;2023-07-13T01:49:25;8.88;;;3.47;;
30301;SDS011;17111;52.130;5.028;2023-07-13T01:51:52;7.82;;;3.05;;
30301;SDS011;17111;52.130;5.028;2023-07-13T01:54:18;5.07;;;2.92;;
30301;SDS011;17111;52.130;5.028;2023-07-13T01:56:45;7.15;;;2.72;;
30301;SDS011;17111;52.130;5.028;2023-07-13T01:59:11;6.13;;;2.50;;
30301;SDS011;17111;52.130;5.028;2023-07-13T02:01:38;5.70;;;2.78;;
30301;SDS011;17111;52.130;5.028;2023-07-13T02:04:05;6.78;;;2.85;;
30301;SDS011;17111;52.130;5.028;2023-07-13T02:06:31;6.38;;;3.03;;
30301;SDS011;17111;52.130;5.028;2023-07-13T02:08:58;6.38;;;2.42;;
30301;SDS011;17111;52.130;5.028;2023-07-13T02:11:25;4.85;;;2.30;;
30301;SDS011;17111;52.130;5.028;2023-07-13T02:13:59;7.80;;;2.47;;
30301;SDS011;17111;52.130;5.028;2023-07-13T02:16:29;6.05;;;2.38;;
30301;SDS011;17111;52.130;5.028;2023-07-13T02:18:57;8.50;;;2.75;;
30301;SDS011;17111;52.130;5.028;2023-07-13T02:21:24;5.28;;;2.65;;
30301;SDS011;17111;52.130;5.028;2023-07-13T02:23:50;7.53;;;3.22;;
30301;SDS011;17111;52.130;5.028;2023-07-13T02:26:17;4.97;;;2.33;;
30301;SDS011;17111;52.130;5.028;2023-07-13T02:28:44;5.75;;;2.30;;
30301;SDS011;17111;52.130;5.028;2023-07-13T02:31:12;5.72;;;2.70;;
30301;SDS011;17111;52.130;5.028;2023-07-13T02:33:40;4.32;;;2.40;;
30301;SDS011;17111;52.130;5.028;2023-07-13T02:36:06;6.03;;;2.50;;
30301;SDS011;17111;52.130;5.028;2023-07-13T02:38:34;6.22;;;2.47;;
30301;SDS011;17111;52.130;5.028;2023-07-13T02:41:05;7.32;;;2.75;;
30301;SDS011;17111;52.130;5.028;2023-07-13T02:43:33;3.88;;;2.17;;
30301;SDS011;17111;52.130;5.028;2023-07-13T02:46:01;7.70;;;2.33;;
30301;SDS011;17111;52.130;5.028;2023-07-13T02:48:34;4.13;;;2.08;;
30301;SDS011;17111;52.130;5.028;2023-07-13T02:51:01;5.82;;;2.53;;
30301;SDS011;17111;52.130;5.028;2023-07-13T02:53:28;5.32;;;2.90;;
30301;SDS011;17111;52.130;5.028;2023-07-13T02:55:54;5.35;;;2.10;;
30301;SDS011;17111;52.130;5.028;2023-07-13T02:58:21;5.55;;;2.05;;
30301;SDS011;17111;52.130;5.028;2023-07-13T03:00:48;3.60;;;2.08;;
30301;SDS011;17111;52.130;5.028;2023-07-13T03:03:16;5.22;;;2.50;;
30301;SDS011;17111;52.130;5.028;2023-07-13T03:05:44;6.05;;;2.45;;
30301;SDS011;17111;52.130;5.028;2023-07-13T03:08:16;6.03;;;2.33;;
30301;SDS011;17111;52.130;5.028;2023-07-13T03:10:44;4.43;;;2.03;;
30301;SDS011;17111;52.130;5.028;2023-07-13T03:13:10;4.50;;;2.42;;
30301;SDS011;17111;52.130;5.028;2023-07-13T03:15:37;6.05;;;2.42;;
30301;SDS011;17111;52.130;5.028;2023-07-13T03:18:04;4.63;;;1.90;;
30301;SDS011;17111;52.130;5.028;2023-07-13T03:20:32;4.13;;;2.20;;
30301;SDS011;17111;52.130;5.028;2023-07-13T03:23:02;4.65;;;2.35;;
30301;SDS011;17111;52.130;5.028;2023-07-13T03:25:29;4.35;;;2.03;;
30301;SDS011;17111;52.130;5.028;2023-07-13T03:27:56;4.20;;;2.13;;
30301;SDS011;17111;52.130;5.028;2023-07-13T03:30:22;6.28;;;2.65;;
30301;SDS011;17111;52.130;5.028;2023-07-13T03:32:49;5.50;;;1.98;;
30301;SDS011;17111;52.130;5.028;2023-07-13T03:35:16;4.93;;;1.98;;
30301;SDS011;17111;52.130;5.028;2023-07-13T03:37:43;5.07;;;2.35;;
30301;SDS011;17111;52.130;5.028;2023-07-13T03:40:10;5.28;;;1.85;;
30301;SDS011;17111;52.130;5.028;2023-07-13T03:42:37;4.35;;;1.70;;
30301;SDS011;17111;52.130;5.028;2023-07-13T03:45:04;4.93;;;1.90;;
30301;SDS011;17111;52.130;5.028;2023-07-13T03:47:31;4.20;;;1.60;;
30301;SDS011;17111;52.130;5.028;2023-07-13T03:49:58;4.80;;;1.90;;
30301;SDS011;17111;52.130;5.028;2023-07-13T03:52:24;4.70;;;2.08;;
30301;SDS011;17111;52.130;5.028;2023-07-13T03:54:51;6.10;;;2.08;;
30301;SDS011;17111;52.130;5.028;2023-07-13T03:57:18;4.60;;;1.83;;
30301;SDS011;17111;52.130;5.028;2023-07-13T03:59:44;7.13;;;1.90;;
30301;SDS011;17111;52.130;5.028;2023-07-13T04:02:11;7.03;;;1.90;;
30301;SDS011;17111;52.130;5.028;2023-07-13T04:04:38;11.45;;;2.38;;
30301;SDS011;17111;52.130;5.028;2023-07-13T04:07:07;8.07;;;2.78;;
30301;SDS011;17111;52.130;5.028;2023-07-13T04:09:37;8.25;;;4.13;;
30301;SDS011;17111;52.130;5.028;2023-07-13T04:12:03;12.88;;;3.83;;
30301;SDS011;17111;52.130;5.028;2023-07-13T04:14:30;9.13;;;3.58;;
30301;SDS011;17111;52.130;5.028;2023-07-13T04:16:57;8.15;;;3.30;;
30301;SDS011;17111;52.130;5.028;2023-07-13T04:19:24;8.98;;;3.90;;
30301;SDS011;17111;52.130;5.028;2023-07-13T04:21:50;6.72;;;3.33;;
30301;SDS011;17111;52.130;5.028;2023-07-13T04:24:17;9.45;;;3.72;;
30301;SDS011;17111;52.130;5.028;2023-07-13T04:26:43;11.38;;;4.05;;
30301;SDS011;17111;52.130;5.028;2023-07-13T04:29:10;11.10;;;3.83;;
30301;SDS011;17111;52.130;5.028;2023-07-13T04:31:37;11.40;;;4.47;;
30301;SDS011;17111;52.130;5.028;2023-07-13T04:34:03;10.82;;;3.88;;
30301;SDS011;17111;52.130;5.028;2023-07-13T04:36:30;16.75;;;4.13;;
30301;SDS011;17111;52.130;5.028;2023-07-13T04:38:57;12.02;;;4.35;;
30301;SDS011;17111;52.130;5.028;2023-07-13T04:41:23;11.38;;;4.47;;
30301;SDS011;17111;52.130;5.028;2023-07-13T04:43:50;8.95;;;4.40;;
30301;SDS011;17111;52.130;5.028;2023-07-13T04:46:17;10.23;;;3.85;;
30301;SDS011;17111;52.130;5.028;2023-07-13T04:48:44;11.45;;;4.65;;
30301;SDS011;17111;52.130;5.028;2023-07-13T04:51:11;16.52;;;5.07;;
30301;SDS011;17111;52.130;5.028;2023-07-13T04:53:38;11.38;;;4.05;;
30301;SDS011;17111;52.130;5.028;2023-07-13T04:56:05;13.95;;;5.03;;
30301;SDS011;17111;52.130;5.028;2023-07-13T04:58:31;9.43;;;4.25;;
30301;SDS011;17111;52.130;5.028;2023-07-13T05:01:03;13.73;;;4.45;;
30301;SDS011;17111;52.130;5.028;2023-07-13T05:03:32;11.20;;;4.20;;
30301;SDS011;17111;52.130;5.028;2023-07-13T05:06:04;14.52;;;5.32;;
30301;SDS011;17111;52.130;5.028;2023-07-13T05:08:32;12.45;;;4.97;;
30301;SDS011;17111;52.130;5.028;2023-07-13T05:11:02;6.68;;;3.83;;
30301;SDS011;17111;52.130;5.028;2023-07-13T05:13:30;11.10;;;4.25;;
30301;SDS011;17111;52.130;5.028;2023-07-13T05:15:57;10.95;;;4.25;;
30301;SDS011;17111;52.130;5.028;2023-07-13T05:18:26;11.73;;;3.97;;
30301;SDS011;17111;52.130;5.028;2023-07-13T05:20:57;9.30;;;4.43;;
30301;SDS011;17111;52.130;5.028;2023-07-13T05:23:29;7.15;;;3.53;;
30301;SDS011;17111;52.130;5.028;2023-07-13T05:25:57;11.52;;;3.97;;
30301;SDS011;17111;52.130;5.028;2023-07-13T05:28:24;10.90;;;3.70;;
30301;SDS011;17111;52.130;5.028;2023-07-13T05:30:51;11.05;;;3.80;;
30301;SDS011;17111;52.130;5.028;2023-07-13T05:33:20;10.35;;;3.28;;
30301;SDS011;17111;52.130;5.028;2023-07-13T05:35:47;9.60;;;4.03;;
30301;SDS011;17111;52.130;5.028;2023-07-13T05:38:13;8.13;;;3.05;;
30301;SDS011;17111;52.130;5.028;2023-07-13T05:40:42;12.05;;;3.70;;
30301;SDS011;17111;52.130;5.028;2023-07-13T05:43:10;12.10;;;3.60;;
30301;SDS011;17111;52.130;5.028;2023-07-13T05:45:37;12.18;;;4.28;;
30301;SDS011;17111;52.130;5.028;2023-07-13T05:48:04;11.25;;;3.70;;
30301;SDS011;17111;52.130;5.028;2023-07-13T05:50:31;11.60;;;3.80;;
30301;SDS011;17111;52.130;5.028;2023-07-13T05:52:58;9.77;;;3.45;;
30301;SDS011;17111;52.130;5.028;2023-07-13T05:55:24;13.88;;;3.78;;
30301;SDS011;17111;52.130;5.028;2023-07-13T05:57:51;7.72;;;3.25;;
30301;SDS011;17111;52.130;5.028;2023-07-13T06:00:17;10.25;;;3.63;;
30301;SDS011;17111;52.130;5.028;2023-07-13T06:02:44;8.23;;;3.42;;
30301;SDS011;17111;52.130;5.028;2023-07-13T06:05:11;7.72;;;2.95;;
30301;SDS011;17111;52.130;5.028;2023-07-13T06:07:37;10.23;;;3.30;;
30301;SDS011;17111;52.130;5.028;2023-07-13T06:10:04;14.45;;;4.25;;
30301;SDS011;17111;52.130;5.028;2023-07-13T06:12:31;12.93;;;4.40;;
30301;SDS011;17111;52.130;5.028;2023-07-13T06:14:58;16.60;;;4.18;;
30301;SDS011;17111;52.130;5.028;2023-07-13T06:17:24;13.27;;;4.05;;
30301;SDS011;17111;52.130;5.028;2023-07-13T06:19:51;18.25;;;4.10;;
30301;SDS011;17111;52.130;5.028;2023-07-13T06:22:18;12.90;;;4.32;;
30301;SDS011;17111;52.130;5.028;2023-07-13T06:24:44;14.07;;;4.05;;
30301;SDS011;17111;52.130;5.028;2023-07-13T06:27:11;16.50;;;4.10;;
30301;SDS011;17111;52.130;5.028;2023-07-13T06:29:37;14.85;;;3.83;;
30301;SDS011;17111;52.130;5.028;2023-07-13T06:32:06;10.88;;;3.25;;
30301;SDS011;17111;52.130;5.028;2023-07-13T06:34:33;14.80;;;4.03;;
30301;SDS011;17111;52.130;5.028;2023-07-13T06:36:59;12.82;;;4.10;;
30301;SDS011;17111;52.130;5.028;2023-07-13T06:39:26;17.08;;;4.22;;
30301;SDS011;17111;52.130;5.028;2023-07-13T06:41:52;13.57;;;3.65;;
30301;SDS011;17111;52.130;5.028;2023-07-13T06:44:19;12.18;;;4.13;;
30301;SDS011;17111;52.130;5.028;2023-07-13T06:46:46;14.75;;;4.63;;
30301;SDS011;17111;52.130;5.028;2023-07-13T06:49:12;8.63;;;2.90;;
30301;SDS011;17111;52.130;5.028;2023-07-13T06:51:39;10.13;;;3.60;;
30301;SDS011;17111;52.130;5.028;2023-07-13T06:54:05;10.27;;;3.10;;
30301;SDS011;17111;52.130;5.028;2023-07-13T06:56:32;12.85;;;3.53;;
30301;SDS011;17111;52.130;5.028;2023-07-13T06:58:59;15.60;;;3.60;;
30301;SDS011;17111;52.130;5.028;2023-07-13T07:01:25;8.32;;;3.00;;
30301;SDS011;17111;52.130;5.028;2023-07-13T07:03:52;9.27;;;3.13;;
30301;SDS011;17111;52.130;5.028;2023-07-13T07:06:20;12.40;;;3.45;;
30301;SDS011;17111;52.130;5.028;2023-07-13T07:08:50;8.93;;;2.92;;
30301;SDS011;17111;52.130;5.028;2023-07-13T07:11:18;8.68;;;2.92;;
30301;SDS011;17111;52.130;5.028;2023-07-13T07:13:51;6.78;;;2.65;;
30301;SDS011;17111;52.130;5.028;2023-07-13T07:16:19;7.20;;;2.53;;
30301;SDS011;17111;52.130;5.028;2023-07-13T07:18:46;8.60;;;3.20;;
30301;SDS011;17111;52.130;5.028;2023-07-13T07:21:13;6.55;;;2.55;;
30301;SDS011;17111;52.130;5.028;2023-07-13T07:23:41;8.40;;;2.63;;
30301;SDS011;17111;52.130;5.028;2023-07-13T07:26:09;7.55;;;2.85;;
30301;SDS011;17111;52.130;5.028;2023-07-13T07:28:36;6.13;;;2.75;;
30301;SDS011;17111;52.130;5.028;2023-07-13T07:31:06;7.50;;;2.58;;
30301;SDS011;17111;52.130;5.028;2023-07-13T07:33:35;6.82;;;2.97;;
30301;SDS011;17111;52.130;5.028;2023-07-13T07:36:02;5.53;;;2.65;;
30301;SDS011;17111;52.130;5.028;2023-07-13T07:38:32;7.82;;;2.63;;
30301;SDS011;17111;52.130;5.028;2023-07-13T07:41:00;8.57;;;2.80;;
30301;SDS011;17111;52.130;5.028;2023-07-13T07:43:32;5.57;;;2.47;;
30301;SDS011;17111;52.130;5.028;2023-07-13T07:45:59;7.30;;;2.83;;
30301;SDS011;17111;52.130;5.028;2023-07-13T07:48:33;7.10;;;2.47;;
30301;SDS011;17111;52.130;5.028;2023-07-13T07:50:59;7.72;;;2.33;;
30301;SDS011;17111;52.130;5.028;2023-07-13T07:53:26;5.80;;;2.47;;
30301;SDS011;17111;52.130;5.028;2023-07-13T07:55:53;7.95;;;2.20;;
30301;SDS011;17111;52.130;5.028;2023-07-13T07:58:22;5.70;;;2.45;;
30301;SDS011;17111;52.130;5.028;2023-07-13T08:00:52;4.53;;;2.33;;
30301;SDS011;17111;52.130;5.028;2023-07-13T08:03:21;5.18;;;2.00;;
30301;SDS011;17111;52.130;5.028;2023-07-13T08:05:54;6.63;;;2.35;;
30301;SDS011;17111;52.130;5.028;2023-07-13T08:08:23;6.05;;;2.63;;
30301;SDS011;17111;52.130;5.028;2023-07-13T08:10:51;5.85;;;2.58;;
30301;SDS011;17111;52.130;5.028;2023-07-13T08:13:22;7.28;;;1.98;;
30301;SDS011;17111;52.130;5.028;2023-07-13T08:15:49;5.60;;;2.00;;
30301;SDS011;17111;52.130;5.028;2023-07-13T08:18:17;7.20;;;1.90;;
30301;SDS011;17111;52.130;5.028;2023-07-13T08:20:43;8.50;;;2.90;;
30301;SDS011;17111;52.130;5.028;2023-07-13T08:23:11;3.60;;;2.10;;
30301;SDS011;17111;52.130;5.028;2023-07-13T08:25:37;5.63;;;2.33;;
30301;SDS011;17111;52.130;5.028;2023-07-13T08:28:04;4.60;;;1.92;;
30301;SDS011;17111;52.130;5.028;2023-07-13T08:30:31;4.97;;;2.30;;
30301;SDS011;17111;52.130;5.028;2023-07-13T08:32:57;6.03;;;1.92;;
30301;SDS011;17111;52.130;5.028;2023-07-13T08:35:24;4.38;;;2.20;;
30301;SDS011;17111;52.130;5.028;2023-07-13T08:37:52;5.88;;;2.13;;
30301;SDS011;17111;52.130;5.028;2023-07-13T08:40:19;6.30;;;1.92;;
30301;SDS011;17111;52.130;5.028;2023-07-13T08:42:55;6.38;;;1.95;;
30301;SDS011;17111;52.130;5.028;2023-07-13T08:45:42;6.07;;;2.10;;
30301;SDS011;17111;52.130;5.028;2023-07-13T08:48:21;5.82;;;2.10;;
30301;SDS011;17111;52.130;5.028;2023-07-13T08:50:55;4.35;;;2.25;;
30301;SDS011;17111;52.130;5.028;2023-07-13T08:53:48;5.55;;;2.22;;
30301;SDS011;17111;52.130;5.028;2023-07-13T08:56:28;5.45;;;2.22;;
30301;SDS011;17111;52.130;5.028;2023-07-13T08:58:56;6.68;;;2.10;;
30301;SDS011;17111;52.130;5.028;2023-07-13T09:04:07;4.80;;;2.10;;
30301;SDS011;17111;52.130;5.028;2023-07-13T09:06:49;6.30;;;2.42;;
30301;SDS011;17111;52.130;5.028;2023-07-13T09:09:25;3.97;;;1.58;;
30301;SDS011;17111;52.130;5.028;2023-07-13T09:12:02;4.20;;;1.80;;
30301;SDS011;17111;52.130;5.028;2023-07-13T09:17:05;4.10;;;1.53;;
30301;SDS011;17111;52.130;5.028;2023-07-13T09:20:41;5.30;;;1.83;;
30301;SDS011;17111;52.130;5.028;2023-07-13T09:23:01;6.47;;;2.15;;
30301;SDS011;17111;52.130;5.028;2023-07-13T09:25:34;6.57;;;1.90;;
30301;SDS011;17111;52.130;5.028;2023-07-13T09:28:16;4.60;;;1.70;;
30301;SDS011;17111;52.130;5.028;2023-07-13T09:31:00;3.78;;;1.38;;
30301;SDS011;17111;52.130;5.028;2023-07-13T09:33:30;3.78;;;1.70;;
30301;SDS011;17111;52.130;5.028;2023-07-13T09:35:57;6.55;;;1.58;;
30301;SDS011;17111;52.130;5.028;2023-07-13T09:38:26;5.57;;;1.63;;
30301;SDS011;17111;52.130;5.028;2023-07-13T09:43:29;4.10;;;1.95;;
30301;SDS011;17111;52.130;5.028;2023-07-13T09:45:56;4.63;;;1.65;;
30301;SDS011;17111;52.130;5.028;2023-07-13T09:48:22;6.18;;;1.70;;
30301;SDS011;17111;52.130;5.028;2023-07-13T09:50:54;3.65;;;1.58;;
30301;SDS011;17111;52.130;5.028;2023-07-13T09:53:22;3.92;;;1.90;;
30301;SDS011;17111;52.130;5.028;2023-07-13T09:55:49;5.57;;;1.73;;
30301;SDS011;17111;52.130;5.028;2023-07-13T09:58:20;6.53;;;1.75;;
30301;SDS011;17111;52.130;5.028;2023-07-13T10:00:57;3.47;;;1.52;;
30301;SDS011;17111;52.130;5.028;2023-07-13T10:03:28;4.10;;;1.80;;
30301;SDS011;17111;52.130;5.028;2023-07-13T10:06:21;5.60;;;2.05;;
30301;SDS011;17111;52.130;5.028;2023-07-13T10:08:50;9.05;;;2.05;;
30301;SDS011;17111;52.130;5.028;2023-07-13T10:11:18;4.07;;;1.83;;
30301;SDS011;17111;52.130;5.028;2023-07-13T10:13:58;5.43;;;1.80;;
30301;SDS011;17111;52.130;5.028;2023-07-13T10:16:28;3.45;;;1.70;;
30301;SDS011;17111;52.130;5.028;2023-07-13T10:19:02;6.32;;;1.95;;
30301;SDS011;17111;52.130;5.028;2023-07-13T10:21:49;11.75;;;1.95;;
30301;SDS011;17111;52.130;5.028;2023-07-13T10:26:48;3.45;;;1.77;;
30301;SDS011;17111;52.130;5.028;2023-07-13T10:29:19;7.00;;;2.22;;
30301;SDS011;17111;52.130;5.028;2023-07-13T10:31:48;4.97;;;1.67;;
30301;SDS011;17111;52.130;5.028;2023-07-13T10:34:16;7.28;;;1.92;;
30301;SDS011;17111;52.130;5.028;2023-07-13T10:36:44;4.95;;;1.75;;
30301;SDS011;17111;52.130;5.028;2023-07-13T10:39:15;5.18;;;1.60;;
30301;SDS011;17111;52.130;5.028;2023-07-13T10:41:45;6.10;;;1.85;;
30301;SDS011;17111;52.130;5.028;2023-07-13T10:44:21;6.25;;;2.20;;
30301;SDS011;17111;52.130;5.028;2023-07-13T10:46:53;8.75;;;2.25;;
30301;SDS011;17111;52.130;5.028;2023-07-13T10:49:23;7.57;;;2.03;;
30301;SDS011;17111;52.130;5.028;2023-07-13T10:51:51;6.03;;;2.35;;
30301;SDS011;17111;52.130;5.028;2023-07-13T10:54:36;3.80;;;1.88;;
30301;SDS011;17111;52.130;5.028;2023-07-13T10:57:07;5.80;;;2.00;;
30301;SDS011;17111;52.130;5.028;2023-07-13T11:04:45;3.25;;;1.75;;
30301;SDS011;17111;52.130;5.028;2023-07-13T11:07:29;4.38;;;1.75;;
30301;SDS011;17111;52.130;5.028;2023-07-13T11:09:59;5.13;;;1.90;;
30301;SDS011;17111;52.130;5.028;2023-07-13T11:15:30;3.83;;;1.70;;
30301;SDS011;17111;52.130;5.028;2023-07-13T11:18:20;6.10;;;1.60;;
30301;SDS011;17111;52.130;5.028;2023-07-13T11:20:49;4.57;;;1.38;;
30301;SDS011;17111;52.130;5.028;2023-07-13T11:25:43;6.38;;;2.20;;
30301;SDS011;17111;52.130;5.028;2023-07-13T11:30:39;5.15;;;1.35;;
30301;SDS011;17111;52.130;5.028;2023-07-13T11:33:22;6.32;;;1.55;;
30301;SDS011;17111;52.130;5.028;2023-07-13T11:38:27;3.03;;;1.48;;
30301;SDS011;17111;52.130;5.028;2023-07-13T11:40:58;4.80;;;1.75;;
30301;SDS011;17111;52.130;5.028;2023-07-13T11:43:29;8.23;;;1.90;;
30301;SDS011;17111;52.130;5.028;2023-07-13T11:45:56;2.58;;;1.45;;
30301;SDS011;17111;52.130;5.028;2023-07-13T11:48:25;5.38;;;1.92;;
30301;SDS011;17111;52.130;5.028;2023-07-13T11:50:58;4.65;;;1.63;;
30301;SDS011;17111;52.130;5.028;2023-07-13T11:53:37;8.85;;;1.83;;
30301;SDS011;17111;52.130;5.028;2023-07-13T11:56:07;8.90;;;1.67;;
30301;SDS011;17111;52.130;5.028;2023-07-13T11:58:34;4.80;;;1.77;;
30301;SDS011;17111;52.130;5.028;2023-07-13T12:01:01;6.22;;;1.98;;
30301;SDS011;17111;52.130;5.028;2023-07-13T12:03:32;6.25;;;2.10;;
30301;SDS011;17111;52.130;5.028;2023-07-13T12:06:05;3.63;;;1.63;;
30301;SDS011;17111;52.130;5.028;2023-07-13T12:08:37;8.07;;;1.92;;
30301;SDS011;17111;52.130;5.028;2023-07-13T12:11:12;7.20;;;1.80;;
30301;SDS011;17111;52.130;5.028;2023-07-13T12:13:43;3.53;;;1.77;;
30301;SDS011;17111;52.130;5.028;2023-07-13T12:16:16;4.55;;;1.70;;
30301;SDS011;17111;52.130;5.028;2023-07-13T12:18:53;6.40;;;2.03;;
30301;SDS011;17111;52.130;5.028;2023-07-13T12:21:22;5.63;;;2.22;;
30301;SDS011;17111;52.130;5.028;2023-07-13T12:23:56;5.60;;;1.88;;
30301;SDS011;17111;52.130;5.028;2023-07-13T12:26:22;7.32;;;1.60;;
30301;SDS011;17111;52.130;5.028;2023-07-13T12:28:51;6.47;;;1.90;;
30301;SDS011;17111;52.130;5.028;2023-07-13T12:34:30;7.28;;;2.47;;
30301;SDS011;17111;52.130;5.028;2023-07-13T12:47:47;5.25;;;2.00;;
30301;SDS011;17111;52.130;5.028;2023-07-13T12:50:20;4.13;;;1.83;;
30301;SDS011;17111;52.130;5.028;2023-07-13T12:52:52;6.25;;;2.15;;
30301;SDS011;17111;52.130;5.028;2023-07-13T12:55:21;5.95;;;1.88;;
30301;SDS011;17111;52.130;5.028;2023-07-13T12:57:51;5.85;;;1.63;;
30301;SDS011;17111;52.130;5.028;2023-07-13T13:00:23;3.92;;;1.77;;
30301;SDS011;17111;52.130;5.028;2023-07-13T13:03:06;5.80;;;2.15;;
30301;SDS011;17111;52.130;5.028;2023-07-13T13:05:59;3.30;;;1.70;;
30301;SDS011;17111;52.130;5.028;2023-07-13T13:08:35;5.00;;;2.13;;
30301;SDS011;17111;52.130;5.028;2023-07-13T13:13:29;3.88;;;1.65;;
30301;SDS011;17111;52.130;5.028;2023-07-13T13:16:00;4.57;;;1.58;;
30301;SDS011;17111;52.130;5.028;2023-07-13T13:18:28;4.75;;;1.90;;
30301;SDS011;17111;52.130;5.028;2023-07-13T13:20:55;5.28;;;2.45;;
30301;SDS011;17111;52.130;5.028;2023-07-13T13:23:22;12.90;;;2.53;;
30301;SDS011;17111;52.130;5.028;2023-07-13T13:25:50;4.70;;;1.80;;
30301;SDS011;17111;52.130;5.028;2023-07-13T13:28:18;5.82;;;1.92;;
30301;SDS011;17111;52.130;5.028;2023-07-13T13:30:47;5.28;;;1.50;;
30301;SDS011;17111;52.130;5.028;2023-07-13T13:33:17;7.75;;;2.22;;
30301;SDS011;17111;52.130;5.028;2023-07-13T13:35:45;4.18;;;1.80;;
30301;SDS011;17111;52.130;5.028;2023-07-13T13:38:13;6.13;;;2.15;;
30301;SDS011;17111;52.130;5.028;2023-07-13T13:40:42;5.68;;;2.25;;
30301;SDS011;17111;52.130;5.028;2023-07-13T13:43:13;6.45;;;2.45;;
30301;SDS011;17111;52.130;5.028;2023-07-13T13:45:44;7.10;;;1.80;;
30301;SDS011;17111;52.130;5.028;2023-07-13T13:48:17;3.72;;;1.75;;
30301;SDS011;17111;52.130;5.028;2023-07-13T13:50:46;5.55;;;2.20;;
30301;SDS011;17111;52.130;5.028;2023-07-13T13:53:14;2.58;;;1.60;;
30301;SDS011;17111;52.130;5.028;2023-07-13T13:55:41;6.30;;;2.30;;
30301;SDS011;17111;52.130;5.028;2023-07-13T13:58:08;7.97;;;2.20;;
30301;SDS011;17111;52.130;5.028;2023-07-13T14:00:37;4.40;;;1.92;;
30301;SDS011;17111;52.130;5.028;2023-07-13T14:03:09;3.67;;;1.77;;
30301;SDS011;17111;52.130;5.028;2023-07-13T14:05:43;6.18;;;1.90;;
30301;SDS011;17111;52.130;5.028;2023-07-13T14:08:19;6.75;;;1.90;;
30301;SDS011;17111;52.130;5.028;2023-07-13T14:10:48;7.03;;;1.88;;
30301;SDS011;17111;52.130;5.028;2023-07-13T14:13:25;4.53;;;1.90;;
30301;SDS011;17111;52.130;5.028;2023-07-13T14:15:55;5.30;;;2.22;;
30301;SDS011;17111;52.130;5.028;2023-07-13T14:18:22;4.25;;;1.67;;
30301;SDS011;17111;52.130;5.028;2023-07-13T14:20:50;4.65;;;1.75;;
30301;SDS011;17111;52.130;5.028;2023-07-13T14:23:19;8.45;;;1.70;;
30301;SDS011;17111;52.130;5.028;2023-07-13T14:25:46;7.90;;;1.75;;
30301;SDS011;17111;52.130;5.028;2023-07-13T14:30:46;6.93;;;1.88;;
30301;SDS011;17111;52.130;5.028;2023-07-13T14:33:13;6.35;;;2.17;;
30301;SDS011;17111;52.130;5.028;2023-07-13T14:35:40;7.28;;;2.72;;
30301;SDS011;17111;52.130;5.028;2023-07-13T14:38:13;5.95;;;1.67;;
30301;SDS011;17111;52.130;5.028;2023-07-13T14:40:43;5.60;;;1.67;;
30301;SDS011;17111;52.130;5.028;2023-07-13T14:43:13;6.97;;;2.03;;
30301;SDS011;17111;52.130;5.028;2023-07-13T14:45:43;5.75;;;1.88;;
30301;SDS011;17111;52.130;5.028;2023-07-13T14:48:14;6.63;;;2.05;;
30301;SDS011;17111;52.130;5.028;2023-07-13T14:50:45;6.38;;;2.20;;
30301;SDS011;17111;52.130;5.028;2023-07-13T14:53:12;6.13;;;1.80;;
30301;SDS011;17111;52.130;5.028;2023-07-13T14:55:40;7.60;;;1.73;;
30301;SDS011;17111;52.130;5.028;2023-07-13T14:58:06;4.53;;;2.10;;
30301;SDS011;17111;52.130;5.028;2023-07-13T15:00:33;5.18;;;1.58;;
30301;SDS011;17111;52.130;5.028;2023-07-13T15:03:00;5.72;;;1.77;;
30301;SDS011;17111;52.130;5.028;2023-07-13T15:05:29;7.40;;;1.90;;
30301;SDS011;17111;52.130;5.028;2023-07-13T15:07:59;6.60;;;1.40;;
30301;SDS011;17111;52.130;5.028;2023-07-13T15:10:29;6.95;;;1.75;;
30301;SDS011;17111;52.130;5.028;2023-07-13T15:13:20;7.47;;;1.50;;
30301;SDS011;17111;52.130;5.028;2023-07-13T15:15:50;6.03;;;1.58;;
30301;SDS011;17111;52.130;5.028;2023-07-13T15:18:20;5.95;;;1.50;;
30301;SDS011;17111;52.130;5.028;2023-07-13T15:20:49;4.72;;;1.63;;
30301;SDS011;17111;52.130;5.028;2023-07-13T15:23:18;5.25;;;2.30;;
30301;SDS011;17111;52.130;5.028;2023-07-13T15:25:45;8.82;;;4.95;;
30301;SDS011;17111;52.130;5.028;2023-07-13T15:28:12;8.07;;;4.93;;
30301;SDS011;17111;52.130;5.028;2023-07-13T15:30:44;9.25;;;4.55;;
30301;SDS011;17111;52.130;5.028;2023-07-13T15:33:14;11.15;;;4.90;;
30301;SDS011;17111;52.130;5.028;2023-07-13T15:35:53;8.10;;;4.13;;
30301;SDS011;17111;52.130;5.028;2023-07-13T15:38:22;8.00;;;4.05;;
30301;SDS011;17111;52.130;5.028;2023-07-13T15:40:51;7.88;;;4.20;;
30301;SDS011;17111;52.130;5.028;2023-07-13T15:43:19;7.38;;;3.75;;
30301;SDS011;17111;52.130;5.028;2023-07-13T15:45:46;12.73;;;4.10;;